Terminal Aerodrome Forecast
Issued by NWS Cleveland, OH

Home | Current Version | Previous Version | Graphics & Text | Print | Product List | Glossary On
Versions: 1 2 3 4 5 6 7 8 9 10 11 12 13 14 15 16 17 18 19 20 21 22 23 24 25 26 27
000
FTUS41 KCLE 192334
TAFCLE
TAF
KCLE 192334Z 2000/2106 20015KT P6SM SCT250
     FM200800 21012KT P6SM BKN250
     FM201600 22012KT P6SM BKN020
     FM202300 20008KT P6SM OVC015=

USA.gov is the U.S. government's official web portal to all federal, state and local government web resources and services.